sensor_id;sensor_type;location;lat;lon;timestamp;P1;durP1;ratioP1;P2;durP2;ratioP2
45734;SDS011;31446;49.632;8.328;2023-07-24T00:11:12;3.22;;;2.40;;
45734;SDS011;31446;49.632;8.328;2023-07-24T00:26:18;7.03;;;2.90;;
45734;SDS011;31446;49.632;8.328;2023-07-24T00:41:24;7.38;;;2.67;;
45734;SDS011;31446;49.632;8.328;2023-07-24T00:56:30;5.85;;;2.80;;
45734;SDS011;31446;49.632;8.328;2023-07-24T01:11:39;5.43;;;2.63;;
45734;SDS011;31446;49.632;8.328;2023-07-24T01:26:50;5.18;;;2.67;;
45734;SDS011;31446;49.632;8.328;2023-07-24T01:41:56;11.15;;;3.40;;
45734;SDS011;31446;49.632;8.328;2023-07-24T01:57:03;6.43;;;2.83;;
45734;SDS011;31446;49.632;8.328;2023-07-24T02:12:10;4.50;;;3.20;;
45734;SDS011;31446;49.632;8.328;2023-07-24T02:27:24;4.57;;;3.20;;
45734;SDS011;31446;49.632;8.328;2023-07-24T02:57:37;4.43;;;2.93;;
45734;SDS011;31446;49.632;8.328;2023-07-24T03:12:43;6.63;;;3.42;;
45734;SDS011;31446;49.632;8.328;2023-07-24T03:27:49;4.95;;;3.28;;
45734;SDS011;31446;49.632;8.328;2023-07-24T03:42:55;7.30;;;3.90;;
45734;SDS011;31446;49.632;8.328;2023-07-24T03:58:01;6.68;;;4.13;;
45734;SDS011;31446;49.632;8.328;2023-07-24T04:13:08;8.82;;;4.85;;
45734;SDS011;31446;49.632;8.328;2023-07-24T04:28:16;12.43;;;5.60;;
45734;SDS011;31446;49.632;8.328;2023-07-24T04:43:23;12.70;;;4.90;;
45734;SDS011;31446;49.632;8.328;2023-07-24T04:58:29;9.32;;;4.93;;
45734;SDS011;31446;49.632;8.328;2023-07-24T05:13:35;7.80;;;4.95;;
45734;SDS011;31446;49.632;8.328;2023-07-24T05:28:41;16.40;;;5.18;;
45734;SDS011;31446;49.632;8.328;2023-07-24T05:43:48;13.98;;;6.25;;
45734;SDS011;31446;49.632;8.328;2023-07-24T05:58:54;11.40;;;6.00;;
45734;SDS011;31446;49.632;8.328;2023-07-24T06:14:00;10.05;;;6.88;;
45734;SDS011;31446;49.632;8.328;2023-07-24T06:29:06;12.40;;;6.53;;
45734;SDS011;31446;49.632;8.328;2023-07-24T06:44:12;14.50;;;6.43;;
45734;SDS011;31446;49.632;8.328;2023-07-24T06:59:18;11.45;;;7.40;;
45734;SDS011;31446;49.632;8.328;2023-07-24T07:14:25;14.90;;;7.38;;
45734;SDS011;31446;49.632;8.328;2023-07-24T07:29:31;10.70;;;5.82;;
45734;SDS011;31446;49.632;8.328;2023-07-24T07:44:37;10.07;;;5.95;;
45734;SDS011;31446;49.632;8.328;2023-07-24T07:59:43;10.77;;;6.20;;
45734;SDS011;31446;49.632;8.328;2023-07-24T08:14:49;17.58;;;6.13;;
45734;SDS011;31446;49.632;8.328;2023-07-24T08:29:55;12.13;;;6.05;;
45734;SDS011;31446;49.632;8.328;2023-07-24T08:45:02;12.82;;;6.03;;
45734;SDS011;31446;49.632;8.328;2023-07-24T09:00:09;21.25;;;6.63;;
45734;SDS011;31446;49.632;8.328;2023-07-24T09:15:16;9.13;;;5.68;;
45734;SDS011;31446;49.632;8.328;2023-07-24T09:30:22;8.52;;;4.55;;
45734;SDS011;31446;49.632;8.328;2023-07-24T09:45:28;12.05;;;3.90;;
45734;SDS011;31446;49.632;8.328;2023-07-24T10:00:35;8.27;;;4.07;;
45734;SDS011;31446;49.632;8.328;2023-07-24T10:15:41;10.60;;;3.60;;
45734;SDS011;31446;49.632;8.328;2023-07-24T10:30:54;6.50;;;3.88;;
45734;SDS011;31446;49.632;8.328;2023-07-24T10:46:01;6.17;;;3.90;;
45734;SDS011;31446;49.632;8.328;2023-07-24T11:01:13;4.47;;;4.03;;
45734;SDS011;31446;49.632;8.328;2023-07-24T11:16:19;8.33;;;4.10;;
45734;SDS011;31446;49.632;8.328;2023-07-24T11:31:25;6.00;;;3.50;;
45734;SDS011;31446;49.632;8.328;2023-07-24T11:46:31;4.67;;;3.63;;
45734;SDS011;31446;49.632;8.328;2023-07-24T12:01:38;5.57;;;4.17;;
45734;SDS011;31446;49.632;8.328;2023-07-24T12:16:44;5.27;;;4.07;;
45734;SDS011;31446;49.632;8.328;2023-07-24T12:31:50;8.93;;;5.20;;
45734;SDS011;31446;49.632;8.328;2023-07-24T12:46:56;16.63;;;5.90;;
45734;SDS011;31446;49.632;8.328;2023-07-24T13:02:02;14.97;;;5.83;;
45734;SDS011;31446;49.632;8.328;2023-07-24T13:17:09;12.60;;;6.57;;
45734;SDS011;31446;49.632;8.328;2023-07-24T13:32:15;10.80;;;6.47;;
45734;SDS011;31446;49.632;8.328;2023-07-24T13:47:21;7.87;;;5.10;;
45734;SDS011;31446;49.632;8.328;2023-07-24T14:02:27;9.57;;;4.93;;
45734;SDS011;31446;49.632;8.328;2023-07-24T14:17:34;5.17;;;3.27;;
45734;SDS011;31446;49.632;8.328;2023-07-24T14:32:40;4.07;;;3.50;;
45734;SDS011;31446;49.632;8.328;2023-07-24T14:47:46;5.13;;;2.40;;
45734;SDS011;31446;49.632;8.328;2023-07-24T15:02:54;5.00;;;3.95;;
45734;SDS011;31446;49.632;8.328;2023-07-24T15:18:00;6.55;;;3.42;;
45734;SDS011;31446;49.632;8.328;2023-07-24T15:33:06;5.80;;;2.55;;
45734;SDS011;31446;49.632;8.328;2023-07-24T15:48:12;0.90;;;0.90;;
45734;SDS011;31446;49.632;8.328;2023-07-24T16:03:19;2.28;;;0.98;;
45734;SDS011;31446;49.632;8.328;2023-07-24T16:18:27;1.20;;;0.80;;
45734;SDS011;31446;49.632;8.328;2023-07-24T16:33:34;1.37;;;0.90;;
45734;SDS011;31446;49.632;8.328;2023-07-24T16:48:40;3.17;;;1.53;;
45734;SDS011;31446;49.632;8.328;2023-07-24T17:03:50;2.58;;;0.85;;
45734;SDS011;31446;49.632;8.328;2023-07-24T17:18:56;1.02;;;1.02;;
45734;SDS011;31446;49.632;8.328;2023-07-24T17:34:05;2.22;;;1.20;;
45734;SDS011;31446;49.632;8.328;2023-07-24T17:49:11;2.28;;;1.27;;
45734;SDS011;31446;49.632;8.328;2023-07-24T18:04:17;1.20;;;1.10;;
45734;SDS011;31446;49.632;8.328;2023-07-24T18:19:24;2.78;;;1.00;;
45734;SDS011;31446;49.632;8.328;2023-07-24T18:34:35;2.00;;;1.27;;
45734;SDS011;31446;49.632;8.328;2023-07-24T18:49:41;1.90;;;1.30;;
45734;SDS011;31446;49.632;8.328;2023-07-24T19:04:47;1.90;;;1.27;;
45734;SDS011;31446;49.632;8.328;2023-07-24T19:19:54;1.20;;;1.10;;
45734;SDS011;31446;49.632;8.328;2023-07-24T19:35:00;3.63;;;1.35;;
45734;SDS011;31446;49.632;8.328;2023-07-24T19:50:07;6.63;;;1.50;;
45734;SDS011;31446;49.632;8.328;2023-07-24T20:05:13;4.95;;;2.05;;
45734;SDS011;31446;49.632;8.328;2023-07-24T20:20:20;1.52;;;1.33;;
45734;SDS011;31446;49.632;8.328;2023-07-24T20:35:26;5.40;;;1.85;;
45734;SDS011;31446;49.632;8.328;2023-07-24T20:50:36;1.90;;;1.13;;
45734;SDS011;31446;49.632;8.328;2023-07-24T21:05:43;8.48;;;1.52;;
45734;SDS011;31446;49.632;8.328;2023-07-24T21:20:49;5.22;;;1.40;;
45734;SDS011;31446;49.632;8.328;2023-07-24T21:36:02;3.63;;;1.60;;
45734;SDS011;31446;49.632;8.328;2023-07-24T21:51:12;12.15;;;3.00;;
45734;SDS011;31446;49.632;8.328;2023-07-24T22:06:19;2.92;;;1.55;;
45734;SDS011;31446;49.632;8.328;2023-07-24T22:21:26;6.18;;;1.30;;
45734;SDS011;31446;49.632;8.328;2023-07-24T22:51:42;2.95;;;1.65;;
45734;SDS011;31446;49.632;8.328;2023-07-24T23:06:49;3.95;;;1.10;;
45734;SDS011;31446;49.632;8.328;2023-07-24T23:21:57;5.05;;;1.50;;
45734;SDS011;31446;49.632;8.328;2023-07-24T23:37:03;3.95;;;1.23;;
45734;SDS011;31446;49.632;8.328;2023-07-24T23:52:10;4.25;;;1.38;;
